sensor_id;sensor_type;location;lat;lon;timestamp;pressure;altitude;pressure_sealevel;temperature;humidity
74631;BME280;63138;55.082;38.804;2023-11-21T00:00:19;99190.09;;;-8.79;100.00
74631;BME280;63138;55.082;38.804;2023-11-21T00:02:46;99180.47;;;-8.80;100.00
74631;BME280;63138;55.082;38.804;2023-11-21T00:05:14;99165.69;;;-8.83;100.00
74631;BME280;63138;55.082;38.804;2023-11-21T00:07:41;99176.16;;;-8.81;100.00
74631;BME280;63138;55.082;38.804;2023-11-21T00:10:08;99180.47;;;-8.80;100.00
74631;BME280;63138;55.082;38.804;2023-11-21T00:12:34;99160.56;;;-8.86;100.00
74631;BME280;63138;55.082;38.804;2023-11-21T00:15:01;99171.81;;;-8.82;100.00
74631;BME280;63138;55.082;38.804;2023-11-21T00:17:40;99161.53;;;-8.87;100.00
74631;BME280;63138;55.082;38.804;2023-11-21T00:20:09;99176.53;;;-8.89;100.00
74631;BME280;63138;55.082;38.804;2023-11-21T00:22:38;99172.25;;;-8.92;100.00
74631;BME280;63138;55.082;38.804;2023-11-21T00:25:06;99167.13;;;-8.95;100.00
74631;BME280;63138;55.082;38.804;2023-11-21T00:27:35;99179.22;;;-8.91;100.00
74631;BME280;63138;55.082;38.804;2023-11-21T00:30:02;99164.59;;;-8.96;100.00
74631;BME280;63138;55.082;38.804;2023-11-21T00:32:33;99160.38;;;-9.00;100.00
74631;BME280;63138;55.082;38.804;2023-11-21T00:35:00;99160.94;;;-8.94;100.00
74631;BME280;63138;55.082;38.804;2023-11-21T00:37:25;99182.13;;;-8.97;100.00
74631;BME280;63138;55.082;38.804;2023-11-21T00:39:51;99167.28;;;-8.98;100.00
74631;BME280;63138;55.082;38.804;2023-11-21T00:42:17;99173.53;;;-9.00;100.00
74631;BME280;63138;55.082;38.804;2023-11-21T00:44:44;99173.59;;;-9.02;100.00
74631;BME280;63138;55.082;38.804;2023-11-21T00:47:11;99177.19;;;-9.03;100.00
74631;BME280;63138;55.082;38.804;2023-11-21T00:49:36;99183.34;;;-9.04;100.00
74631;BME280;63138;55.082;38.804;2023-11-21T00:52:05;99171.84;;;-9.01;100.00
74631;BME280;63138;55.082;38.804;2023-11-21T00:54:31;99175.31;;;-9.01;100.00
74631;BME280;63138;55.082;38.804;2023-11-21T00:56:58;99175.47;;;-9.04;100.00
74631;BME280;63138;55.082;38.804;2023-11-21T00:59:24;99153.50;;;-9.03;100.00
74631;BME280;63138;55.082;38.804;2023-11-21T01:01:50;99165.72;;;-9.02;100.00
74631;BME280;63138;55.082;38.804;2023-11-21T01:04:16;99164.03;;;-9.03;100.00
74631;BME280;63138;55.082;38.804;2023-11-21T01:06:41;99158.75;;;-9.03;100.00
74631;BME280;63138;55.082;38.804;2023-11-21T01:09:08;99149.09;;;-9.02;100.00
74631;BME280;63138;55.082;38.804;2023-11-21T01:11:35;99157.75;;;-9.00;100.00
74631;BME280;63138;55.082;38.804;2023-11-21T01:14:02;99157.81;;;-9.02;100.00
74631;BME280;63138;55.082;38.804;2023-11-21T01:16:31;99155.03;;;-8.99;100.00
74631;BME280;63138;55.082;38.804;2023-11-21T01:19:00;99138.41;;;-8.99;100.00
74631;BME280;63138;55.082;38.804;2023-11-21T01:21:29;99154.13;;;-8.98;100.00
74631;BME280;63138;55.082;38.804;2023-11-21T01:23:56;99153.19;;;-8.97;100.00
74631;BME280;63138;55.082;38.804;2023-11-21T01:26:22;99147.94;;;-8.97;100.00
74631;BME280;63138;55.082;38.804;2023-11-21T01:28:48;99147.78;;;-8.94;100.00
74631;BME280;63138;55.082;38.804;2023-11-21T01:31:15;99150.41;;;-8.94;100.00
74631;BME280;63138;55.082;38.804;2023-11-21T01:33:41;99142.38;;;-8.91;100.00
74631;BME280;63138;55.082;38.804;2023-11-21T01:36:07;99143.38;;;-8.93;100.00
74631;BME280;63138;55.082;38.804;2023-11-21T01:38:34;99152.91;;;-8.91;100.00
74631;BME280;63138;55.082;38.804;2023-11-21T01:41:01;99156.31;;;-8.89;100.00
74631;BME280;63138;55.082;38.804;2023-11-21T01:43:27;99152.69;;;-8.86;100.00
74631;BME280;63138;55.082;38.804;2023-11-21T01:45:56;99164.84;;;-8.83;100.00
74631;BME280;63138;55.082;38.804;2023-11-21T01:48:23;99169.09;;;-8.81;100.00
74631;BME280;63138;55.082;38.804;2023-11-21T01:50:50;99174.44;;;-8.82;100.00
74631;BME280;63138;55.082;38.804;2023-11-21T01:53:16;99188.31;;;-8.79;100.00
74631;BME280;63138;55.082;38.804;2023-11-21T01:55:42;99188.38;;;-8.80;100.00
74631;BME280;63138;55.082;38.804;2023-11-21T01:58:10;99209.16;;;-8.74;100.00
74631;BME280;63138;55.082;38.804;2023-11-21T02:00:37;99214.41;;;-8.74;100.00
74631;BME280;63138;55.082;38.804;2023-11-21T02:03:04;99209.16;;;-8.74;100.00
74631;BME280;63138;55.082;38.804;2023-11-21T02:05:31;99209.09;;;-8.73;100.00
74631;BME280;63138;55.082;38.804;2023-11-21T02:07:58;99202.81;;;-8.70;100.00
74631;BME280;63138;55.082;38.804;2023-11-21T02:10:26;99197.63;;;-8.72;100.00
74631;BME280;63138;55.082;38.804;2023-11-21T02:12:52;99203.59;;;-8.68;100.00
74631;BME280;63138;55.082;38.804;2023-11-21T02:15:18;99200.03;;;-8.67;100.00
74631;BME280;63138;55.082;38.804;2023-11-21T02:17:50;99214.81;;;-8.65;100.00
74631;BME280;63138;55.082;38.804;2023-11-21T02:20:21;99213.06;;;-8.64;100.00
74631;BME280;63138;55.082;38.804;2023-11-21T02:22:52;99227.13;;;-8.65;100.00
74631;BME280;63138;55.082;38.804;2023-11-21T02:25:26;99218.22;;;-8.62;100.00
74631;BME280;63138;55.082;38.804;2023-11-21T02:27:57;99214.88;;;-8.66;100.00
74631;BME280;63138;55.082;38.804;2023-11-21T02:30:24;99208.50;;;-8.60;100.00
74631;BME280;63138;55.082;38.804;2023-11-21T02:33:01;99215.53;;;-8.61;100.00
74631;BME280;63138;55.082;38.804;2023-11-21T02:35:27;99203.94;;;-8.57;100.00
74631;BME280;63138;55.082;38.804;2023-11-21T02:38:11;99207.63;;;-8.61;100.00
74631;BME280;63138;55.082;38.804;2023-11-21T02:40:37;99198.25;;;-8.67;100.00
74631;BME280;63138;55.082;38.804;2023-11-21T02:43:03;99196.38;;;-8.65;100.00
74631;BME280;63138;55.082;38.804;2023-11-21T02:45:32;99196.47;;;-8.66;100.00
74631;BME280;63138;55.082;38.804;2023-11-21T02:47:58;99193.81;;;-8.66;100.00
74631;BME280;63138;55.082;38.804;2023-11-21T02:50:24;99185.78;;;-8.63;100.00
74631;BME280;63138;55.082;38.804;2023-11-21T02:52:50;99194.69;;;-8.66;100.00
74631;BME280;63138;55.082;38.804;2023-11-21T02:55:16;99192.13;;;-8.67;100.00
74631;BME280;63138;55.082;38.804;2023-11-21T02:57:43;99192.28;;;-8.70;100.00
74631;BME280;63138;55.082;38.804;2023-11-21T03:00:09;99206.22;;;-8.68;100.00
74631;BME280;63138;55.082;38.804;2023-11-21T03:02:38;99206.22;;;-8.68;100.00
74631;BME280;63138;55.082;38.804;2023-11-21T03:05:06;99213.41;;;-8.72;100.00
74631;BME280;63138;55.082;38.804;2023-11-21T03:07:32;99221.22;;;-8.70;100.00
74631;BME280;63138;55.082;38.804;2023-11-21T03:10:16;99218.75;;;-8.73;100.00
74631;BME280;63138;55.082;38.804;2023-11-21T03:12:42;99211.84;;;-8.76;100.00
74631;BME280;63138;55.082;38.804;2023-11-21T03:15:09;99215.06;;;-8.69;100.00
74631;BME280;63138;55.082;38.804;2023-11-21T03:17:35;99228.22;;;-8.69;100.00
74631;BME280;63138;55.082;38.804;2023-11-21T03:20:03;99235.16;;;-8.68;100.00
74631;BME280;63138;55.082;38.804;2023-11-21T03:22:30;99223.88;;;-8.70;100.00
74631;BME280;63138;55.082;38.804;2023-11-21T03:24:56;99244.94;;;-8.70;100.00
74631;BME280;63138;55.082;38.804;2023-11-21T03:27:22;99259.75;;;-8.68;100.00
74631;BME280;63138;55.082;38.804;2023-11-21T03:29:48;99260.59;;;-8.67;100.00
74631;BME280;63138;55.082;38.804;2023-11-21T03:32:15;99271.13;;;-8.67;100.00
74631;BME280;63138;55.082;38.804;2023-11-21T03:34:59;99271.97;;;-8.67;100.00
74631;BME280;63138;55.082;38.804;2023-11-21T03:37:24;99260.53;;;-8.66;100.00
74631;BME280;63138;55.082;38.804;2023-11-21T03:39:52;99271.91;;;-8.65;100.00
74631;BME280;63138;55.082;38.804;2023-11-21T03:42:18;99280.63;;;-8.65;100.00
74631;BME280;63138;55.082;38.804;2023-11-21T03:44:44;99277.94;;;-8.63;100.00
74631;BME280;63138;55.082;38.804;2023-11-21T03:47:10;99277.09;;;-8.63;100.00
74631;BME280;63138;55.082;38.804;2023-11-21T03:49:36;99273.75;;;-8.67;100.00
74631;BME280;63138;55.082;38.804;2023-11-21T03:52:02;99260.59;;;-8.67;100.00
74631;BME280;63138;55.082;38.804;2023-11-21T03:54:31;99272.91;;;-8.68;100.00
74631;BME280;63138;55.082;38.804;2023-11-21T03:56:56;99269.41;;;-8.68;100.00
74631;BME280;63138;55.082;38.804;2023-11-21T03:59:22;99271.31;;;-8.72;100.00
74631;BME280;63138;55.082;38.804;2023-11-21T04:01:50;99261.88;;;-8.76;100.00
74631;BME280;63138;55.082;38.804;2023-11-21T04:04:16;99259.22;;;-8.76;100.00
74631;BME280;63138;55.082;38.804;2023-11-21T04:06:41;99262.78;;;-8.77;100.00
74631;BME280;63138;55.082;38.804;2023-11-21T04:09:07;99264.56;;;-8.77;100.00
74631;BME280;63138;55.082;38.804;2023-11-21T04:11:33;99256.72;;;-8.79;100.00
74631;BME280;63138;55.082;38.804;2023-11-21T04:13:59;99269.84;;;-8.77;100.00
74631;BME280;63138;55.082;38.804;2023-11-21T04:16:25;99250.75;;;-8.82;100.00
74631;BME280;63138;55.082;38.804;2023-11-21T04:18:50;99241.88;;;-8.80;100.00
74631;BME280;63138;55.082;38.804;2023-11-21T04:21:16;99246.72;;;-8.90;100.00
74631;BME280;63138;55.082;38.804;2023-11-21T04:23:43;99240.53;;;-8.89;100.00
74631;BME280;63138;55.082;38.804;2023-11-21T04:26:09;99256.09;;;-8.84;100.00
74631;BME280;63138;55.082;38.804;2023-11-21T04:28:35;99255.25;;;-8.85;100.00
74631;BME280;63138;55.082;38.804;2023-11-21T04:31:00;99249.28;;;-8.88;100.00
74631;BME280;63138;55.082;38.804;2023-11-21T04:33:26;99254.59;;;-8.90;100.00
74631;BME280;63138;55.082;38.804;2023-11-21T04:35:52;99255.47;;;-8.89;100.00
74631;BME280;63138;55.082;38.804;2023-11-21T04:38:18;99244.97;;;-8.89;100.00
74631;BME280;63138;55.082;38.804;2023-11-21T04:40:44;99252.75;;;-8.88;100.00
74631;BME280;63138;55.082;38.804;2023-11-21T04:43:11;99266.00;;;-8.89;100.00
74631;BME280;63138;55.082;38.804;2023-11-21T04:45:37;99262.56;;;-8.91;100.00
74631;BME280;63138;55.082;38.804;2023-11-21T04:48:03;99276.53;;;-8.89;100.00
74631;BME280;63138;55.082;38.804;2023-11-21T04:50:29;99301.06;;;-8.89;100.00
74631;BME280;63138;55.082;38.804;2023-11-21T04:52:55;99289.75;;;-8.91;100.00
74631;BME280;63138;55.082;38.804;2023-11-21T04:55:21;99289.81;;;-8.92;100.00
74631;BME280;63138;55.082;38.804;2023-11-21T04:57:46;99297.59;;;-8.89;100.00
74631;BME280;63138;55.082;38.804;2023-11-21T05:00:13;99289.59;;;-8.88;100.00
74631;BME280;63138;55.082;38.804;2023-11-21T05:02:42;99272.25;;;-8.92;100.00
74631;BME280;63138;55.082;38.804;2023-11-21T05:05:09;99280.78;;;-8.87;100.00
74631;BME280;63138;55.082;38.804;2023-11-21T05:07:36;99272.97;;;-8.88;100.00
74631;BME280;63138;55.082;38.804;2023-11-21T05:10:06;99286.19;;;-8.90;100.00
74631;BME280;63138;55.082;38.804;2023-11-21T05:12:38;99294.97;;;-8.89;100.00
74631;BME280;63138;55.082;38.804;2023-11-21T05:15:06;99293.22;;;-8.90;100.00
74631;BME280;63138;55.082;38.804;2023-11-21T05:17:38;99293.16;;;-8.89;100.00
74631;BME280;63138;55.082;38.804;2023-11-21T05:20:08;99301.97;;;-8.90;100.00
74631;BME280;63138;55.082;38.804;2023-11-21T05:22:35;99294.00;;;-8.88;100.00
74631;BME280;63138;55.082;38.804;2023-11-21T05:25:02;99294.84;;;-8.88;100.00
74631;BME280;63138;55.082;38.804;2023-11-21T05:27:30;99294.84;;;-8.88;100.00
74631;BME280;63138;55.082;38.804;2023-11-21T05:29:57;99310.59;;;-8.86;100.00
74631;BME280;63138;55.082;38.804;2023-11-21T05:32:24;99303.47;;;-8.84;100.00
74631;BME280;63138;55.082;38.804;2023-11-21T05:34:50;99306.19;;;-8.86;100.00
74631;BME280;63138;55.082;38.804;2023-11-21T05:37:16;99314.81;;;-8.82;100.00
74631;BME280;63138;55.082;38.804;2023-11-21T05:39:43;99326.25;;;-8.83;100.00
74631;BME280;63138;55.082;38.804;2023-11-21T05:42:09;99317.22;;;-8.77;100.00
74631;BME280;63138;55.082;38.804;2023-11-21T05:44:37;99313.66;;;-8.76;100.00
74631;BME280;63138;55.082;38.804;2023-11-21T05:47:03;99316.38;;;-8.78;100.00
74631;BME280;63138;55.082;38.804;2023-11-21T05:49:29;99317.22;;;-8.77;100.00
74631;BME280;63138;55.082;38.804;2023-11-21T05:51:56;99325.88;;;-8.75;100.00
74631;BME280;63138;55.082;38.804;2023-11-21T05:54:22;99329.28;;;-8.73;100.00
74631;BME280;63138;55.082;38.804;2023-11-21T05:56:49;99317.91;;;-8.74;100.00
74631;BME280;63138;55.082;38.804;2023-11-21T05:59:15;99315.22;;;-8.72;100.00
74631;BME280;63138;55.082;38.804;2023-11-21T06:01:41;99319.41;;;-8.68;100.00
74631;BME280;63138;55.082;38.804;2023-11-21T06:04:06;99302.13;;;-8.74;100.00
74631;BME280;63138;55.082;38.804;2023-11-21T06:06:35;99319.41;;;-8.68;100.00
74631;BME280;63138;55.082;38.804;2023-11-21T06:09:01;99307.97;;;-8.67;100.00
74631;BME280;63138;55.082;38.804;2023-11-21T06:11:27;99313.81;;;-8.60;100.00
74631;BME280;63138;55.082;38.804;2023-11-21T06:13:53;99312.16;;;-8.63;100.00
74631;BME280;63138;55.082;38.804;2023-11-21T06:16:19;99320.63;;;-8.56;100.00
74631;BME280;63138;55.082;38.804;2023-11-21T06:18:45;99315.31;;;-8.55;100.00
74631;BME280;63138;55.082;38.804;2023-11-21T06:21:12;99320.63;;;-8.56;100.00
74631;BME280;63138;55.082;38.804;2023-11-21T06:23:39;99324.75;;;-8.51;100.00
74631;BME280;63138;55.082;38.804;2023-11-21T06:26:05;99325.41;;;-8.46;100.00
74631;BME280;63138;55.082;38.804;2023-11-21T06:28:32;99322.06;;;-8.49;100.00
74631;BME280;63138;55.082;38.804;2023-11-21T06:30:58;99320.13;;;-8.46;100.00
74631;BME280;63138;55.082;38.804;2023-11-21T06:33:24;99316.56;;;-8.44;100.00
74631;BME280;63138;55.082;38.804;2023-11-21T06:35:53;99304.53;;;-8.50;100.00
74631;BME280;63138;55.082;38.804;2023-11-21T06:38:18;99322.00;;;-8.48;100.00
74631;BME280;63138;55.082;38.804;2023-11-21T06:40:45;99322.91;;;-8.49;100.00
74631;BME280;63138;55.082;38.804;2023-11-21T06:43:11;99324.47;;;-8.44;100.00
74631;BME280;63138;55.082;38.804;2023-11-21T06:45:36;99310.38;;;-8.43;100.00
74631;BME280;63138;55.082;38.804;2023-11-21T06:48:02;99314.88;;;-8.46;100.00
74631;BME280;63138;55.082;38.804;2023-11-21T06:50:29;99313.16;;;-8.47;100.00
74631;BME280;63138;55.082;38.804;2023-11-21T06:52:54;99327.09;;;-8.44;100.00
74631;BME280;63138;55.082;38.804;2023-11-21T06:55:20;99329.81;;;-8.46;100.00
74631;BME280;63138;55.082;38.804;2023-11-21T06:57:47;99329.91;;;-8.48;100.00
74631;BME280;63138;55.082;38.804;2023-11-21T07:00:15;99328.88;;;-8.45;100.00
74631;BME280;63138;55.082;38.804;2023-11-21T07:02:45;99341.13;;;-8.44;100.00
74631;BME280;63138;55.082;38.804;2023-11-21T07:05:11;99342.03;;;-8.45;100.00
74631;BME280;63138;55.082;38.804;2023-11-21T07:07:39;99333.16;;;-8.42;100.00
74631;BME280;63138;55.082;38.804;2023-11-21T07:10:05;99328.75;;;-8.42;100.00
74631;BME280;63138;55.082;38.804;2023-11-21T07:12:31;99331.44;;;-8.43;100.00
74631;BME280;63138;55.082;38.804;2023-11-21T07:14:58;99337.72;;;-8.46;100.00
74631;BME280;63138;55.082;38.804;2023-11-21T07:17:24;99332.34;;;-8.44;100.00
74631;BME280;63138;55.082;38.804;2023-11-21T07:19:49;99332.00;;;-8.37;100.00
74631;BME280;63138;55.082;38.804;2023-11-21T07:22:16;99328.41;;;-8.36;100.00
74631;BME280;63138;55.082;38.804;2023-11-21T07:24:49;99342.28;;;-8.32;100.00
74631;BME280;63138;55.082;38.804;2023-11-21T07:27:19;99341.50;;;-8.34;100.00
74631;BME280;63138;55.082;38.804;2023-11-21T07:29:45;99343.00;;;-8.29;100.00
74631;BME280;63138;55.082;38.804;2023-11-21T07:32:11;99353.19;;;-8.21;100.00
74631;BME280;63138;55.082;38.804;2023-11-21T07:34:38;99350.78;;;-8.26;100.00
74631;BME280;63138;55.082;38.804;2023-11-21T07:37:04;99363.56;;;-8.18;100.00
74631;BME280;63138;55.082;38.804;2023-11-21T07:39:30;99364.28;;;-8.14;100.00
74631;BME280;63138;55.082;38.804;2023-11-21T07:41:56;99365.88;;;-8.10;100.00
74631;BME280;63138;55.082;38.804;2023-11-21T07:44:23;99371.63;;;-8.21;100.00
74631;BME280;63138;55.082;38.804;2023-11-21T07:46:50;99373.56;;;-8.24;100.00
74631;BME280;63138;55.082;38.804;2023-11-21T07:49:15;99382.19;;;-8.21;100.00
74631;BME280;63138;55.082;38.804;2023-11-21T07:51:43;99384.81;;;-8.21;100.00
74631;BME280;63138;55.082;38.804;2023-11-21T07:54:27;99379.44;;;-8.19;100.00
74631;BME280;63138;55.082;38.804;2023-11-21T07:56:53;99369.91;;;-8.22;100.00
74631;BME280;63138;55.082;38.804;2023-11-21T07:59:19;99387.16;;;-8.15;100.00
74631;BME280;63138;55.082;38.804;2023-11-21T08:01:44;99384.81;;;-8.21;100.00
74631;BME280;63138;55.082;38.804;2023-11-21T08:04:11;99382.06;;;-8.19;100.00
74631;BME280;63138;55.082;38.804;2023-11-21T08:06:37;99382.66;;;-8.13;100.00
74631;BME280;63138;55.082;38.804;2023-11-21T08:09:03;99379.25;;;-8.15;100.00
74631;BME280;63138;55.082;38.804;2023-11-21T08:11:29;99380.16;;;-8.16;100.00
74631;BME280;63138;55.082;38.804;2023-11-21T08:13:56;99374.88;;;-8.16;100.00
74631;BME280;63138;55.082;38.804;2023-11-21T08:16:22;99377.09;;;-8.07;100.00
74631;BME280;63138;55.082;38.804;2023-11-21T08:18:49;99378.41;;;-8.15;100.00
74631;BME280;63138;55.082;38.804;2023-11-21T08:21:17;99382.50;;;-8.10;100.00
74631;BME280;63138;55.082;38.804;2023-11-21T08:23:43;99379.88;;;-8.10;100.00
74631;BME280;63138;55.082;38.804;2023-11-21T08:26:24;99383.22;;;-8.06;100.00
74631;BME280;63138;55.082;38.804;2023-11-21T08:29:09;99373.47;;;-8.04;100.00
74631;BME280;63138;55.082;38.804;2023-11-21T08:31:35;99361.84;;;-8.00;100.00
74631;BME280;63138;55.082;38.804;2023-11-21T08:34:02;99371.41;;;-7.97;100.00
74631;BME280;63138;55.082;38.804;2023-11-21T08:36:29;99363.22;;;-8.10;100.00
74631;BME280;63138;55.082;38.804;2023-11-21T08:38:57;99359.56;;;-8.08;100.00
74631;BME280;63138;55.082;38.804;2023-11-21T08:41:23;99354.44;;;-8.11;100.00
74631;BME280;63138;55.082;38.804;2023-11-21T08:43:50;99350.75;;;-8.07;100.00
74631;BME280;63138;55.082;38.804;2023-11-21T08:46:17;99349.16;;;-8.11;100.00
74631;BME280;63138;55.082;38.804;2023-11-21T08:48:44;99339.66;;;-8.13;100.00
74631;BME280;63138;55.082;38.804;2023-11-21T08:51:10;99349.03;;;-8.08;100.00
74631;BME280;63138;55.082;38.804;2023-11-21T08:53:39;99345.50;;;-8.07;100.00
74631;BME280;63138;55.082;38.804;2023-11-21T08:56:06;99350.75;;;-8.07;100.00
74631;BME280;63138;55.082;38.804;2023-11-21T08:58:33;99347.94;;;-8.03;100.00
74631;BME280;63138;55.082;38.804;2023-11-21T09:00:59;99353.84;;;-7.98;100.00
74631;BME280;63138;55.082;38.804;2023-11-21T09:03:25;99339.41;;;-8.09;100.00
74631;BME280;63138;55.082;38.804;2023-11-21T09:05:51;99350.44;;;-8.00;100.00
74631;BME280;63138;55.082;38.804;2023-11-21T09:08:17;99355.22;;;-8.09;100.00
74631;BME280;63138;55.082;38.804;2023-11-21T09:10:42;99349.16;;;-8.11;100.00
74631;BME280;63138;55.082;38.804;2023-11-21T09:13:10;99343.06;;;-8.11;100.00
74631;BME280;63138;55.082;38.804;2023-11-21T09:15:37;99353.47;;;-8.08;100.00
74631;BME280;63138;55.082;38.804;2023-11-21T09:18:03;99346.41;;;-8.08;100.00
74631;BME280;63138;55.082;38.804;2023-11-21T09:20:30;99363.00;;;-8.05;100.00
74631;BME280;63138;55.082;38.804;2023-11-21T09:22:56;99359.56;;;-8.08;100.00
74631;BME280;63138;55.082;38.804;2023-11-21T09:25:22;99370.91;;;-8.05;100.00
74631;BME280;63138;55.082;38.804;2023-11-21T09:27:48;99364.25;;;-7.95;100.00
74631;BME280;63138;55.082;38.804;2023-11-21T09:30:14;99347.22;;;-7.88;100.00
74631;BME280;63138;55.082;38.804;2023-11-21T09:32:40;99365.19;;;-7.96;100.00
74631;BME280;63138;55.082;38.804;2023-11-21T09:35:06;99373.09;;;-7.96;100.00
74631;BME280;63138;55.082;38.804;2023-11-21T09:37:34;99379.78;;;-7.89;100.00
74631;BME280;63138;55.082;38.804;2023-11-21T09:40:01;99376.22;;;-7.88;100.00
74631;BME280;63138;55.082;38.804;2023-11-21T09:42:36;99369.78;;;-7.82;100.00
74631;BME280;63138;55.082;38.804;2023-11-21T09:47:38;99372.34;;;-7.81;100.00
74631;BME280;63138;55.082;38.804;2023-11-21T09:50:06;99374.34;;;-7.86;100.00
74631;BME280;63138;55.082;38.804;2023-11-21T09:55:45;99369.09;;;-7.86;100.00
74631;BME280;63138;55.082;38.804;2023-11-21T09:58:14;99372.63;;;-7.87;100.00
74631;BME280;63138;55.082;38.804;2023-11-21T10:00:45;99375.19;;;-7.85;100.00
74631;BME280;63138;55.082;38.804;2023-11-21T10:03:12;99372.94;;;-7.93;100.00
74631;BME280;63138;55.082;38.804;2023-11-21T10:05:39;99385.97;;;-7.90;100.00
74631;BME280;63138;55.082;38.804;2023-11-21T10:08:10;99386.53;;;-7.83;100.00
74631;BME280;63138;55.082;38.804;2023-11-21T10:10:37;99383.88;;;-7.83;100.00
74631;BME280;63138;55.082;38.804;2023-11-21T10:13:06;99370.94;;;-7.88;100.00
74631;BME280;63138;55.082;38.804;2023-11-21T10:15:36;99375.28;;;-7.87;100.00
74631;BME280;63138;55.082;38.804;2023-11-21T10:18:03;99379.50;;;-7.83;100.00
74631;BME280;63138;55.082;38.804;2023-11-21T10:20:31;99376.59;;;-7.78;100.00
74631;BME280;63138;55.082;38.804;2023-11-21T10:23:00;99388.72;;;-7.74;100.00
74631;BME280;63138;55.082;38.804;2023-11-21T10:25:30;99385.84;;;-7.70;100.00
74631;BME280;63138;55.082;38.804;2023-11-21T10:28:01;99392.75;;;-7.67;100.00
74631;BME280;63138;55.082;38.804;2023-11-21T10:30:35;99387.59;;;-7.69;100.00
74631;BME280;63138;55.082;38.804;2023-11-21T10:33:07;99379.50;;;-7.65;100.00
74631;BME280;63138;55.082;38.804;2023-11-21T10:35:47;99392.53;;;-7.62;100.00
74631;BME280;63138;55.082;38.804;2023-11-21T10:38:21;99389.59;;;-7.56;100.00
74631;BME280;63138;55.082;38.804;2023-11-21T10:40:49;99378.25;;;-7.58;100.00
74631;BME280;63138;55.082;38.804;2023-11-21T10:43:15;99379.34;;;-7.62;100.00
74631;BME280;63138;55.082;38.804;2023-11-21T10:45:42;99385.88;;;-7.52;100.00
74631;BME280;63138;55.082;38.804;2023-11-21T10:48:10;99389.38;;;-7.52;100.00
74631;BME280;63138;55.082;38.804;2023-11-21T10:50:39;99387.97;;;-7.59;100.00
74631;BME280;63138;55.082;38.804;2023-11-21T10:53:05;99386.34;;;-7.61;100.00
74631;BME280;63138;55.082;38.804;2023-11-21T10:55:32;99399.34;;;-7.58;100.00
74631;BME280;63138;55.082;38.804;2023-11-21T10:58:00;99391.00;;;-7.66;100.00
74631;BME280;63138;55.082;38.804;2023-11-21T11:00:32;99396.78;;;-7.60;100.00
74631;BME280;63138;55.082;38.804;2023-11-21T11:03:00;99404.50;;;-7.55;100.00
74631;BME280;63138;55.082;38.804;2023-11-21T11:05:27;99394.00;;;-7.57;100.00
74631;BME280;63138;55.082;38.804;2023-11-21T11:08:08;99391.31;;;-7.55;100.00
74631;BME280;63138;55.082;38.804;2023-11-21T11:10:35;99396.91;;;-7.61;100.00
74631;BME280;63138;55.082;38.804;2023-11-21T11:13:02;99399.28;;;-7.57;100.00
74631;BME280;63138;55.082;38.804;2023-11-21T11:15:28;99396.78;;;-7.60;100.00
74631;BME280;63138;55.082;38.804;2023-11-21T11:17:55;99397.50;;;-7.56;100.00
74631;BME280;63138;55.082;38.804;2023-11-21T11:20:29;99397.94;;;-7.65;100.00
74631;BME280;63138;55.082;38.804;2023-11-21T11:26:16;99396.72;;;-7.58;100.00
74631;BME280;63138;55.082;38.804;2023-11-21T11:29:11;99400.31;;;-7.59;100.00
74631;BME280;63138;55.082;38.804;2023-11-21T11:34:50;99388.44;;;-7.87;100.00
74631;BME280;63138;55.082;38.804;2023-11-21T11:37:19;99390.16;;;-7.86;100.00
74631;BME280;63138;55.082;38.804;2023-11-21T11:39:46;99409.72;;;-7.90;100.00
74631;BME280;63138;55.082;38.804;2023-11-21T11:42:13;99393.25;;;-7.95;100.00
74631;BME280;63138;55.082;38.804;2023-11-21T11:47:24;99408.44;;;-8.00;100.00
74631;BME280;63138;55.082;38.804;2023-11-21T11:50:01;99405.00;;;-8.02;100.00
74631;BME280;63138;55.082;38.804;2023-11-21T11:52:43;99402.66;;;-8.09;100.00
74631;BME280;63138;55.082;38.804;2023-11-21T11:55:14;99408.72;;;-8.07;100.00
74631;BME280;63138;55.082;38.804;2023-11-21T11:57:41;99411.38;;;-8.07;100.00
74631;BME280;63138;55.082;38.804;2023-11-21T12:00:17;99406.88;;;-8.04;100.00
74631;BME280;63138;55.082;38.804;2023-11-21T12:03:08;99419.97;;;-8.03;100.00
74631;BME280;63138;55.082;38.804;2023-11-21T12:05:35;99411.25;;;-8.05;100.00
74631;BME280;63138;55.082;38.804;2023-11-21T12:08:06;99428.88;;;-8.05;100.00
74631;BME280;63138;55.082;38.804;2023-11-21T12:10:34;99436.72;;;-8.04;100.00
74631;BME280;63138;55.082;38.804;2023-11-21T12:13:10;99439.34;;;-8.04;100.00
74631;BME280;63138;55.082;38.804;2023-11-21T12:15:39;99434.91;;;-8.03;100.00
74631;BME280;63138;55.082;38.804;2023-11-21T12:18:07;99445.31;;;-8.00;100.00
74631;BME280;63138;55.082;38.804;2023-11-21T12:20:33;99444.69;;;-8.05;100.00
74631;BME280;63138;55.082;38.804;2023-11-21T12:23:05;99434.22;;;-8.07;100.00
74631;BME280;63138;55.082;38.804;2023-11-21T12:25:31;99455.22;;;-8.05;100.00
74631;BME280;63138;55.082;38.804;2023-11-21T12:28:00;99450.72;;;-8.03;100.00
74631;BME280;63138;55.082;38.804;2023-11-21T12:30:28;99461.28;;;-8.03;100.00
74631;BME280;63138;55.082;38.804;2023-11-21T12:32:58;99451.69;;;-8.04;100.00
74631;BME280;63138;55.082;38.804;2023-11-21T12:35:29;99452.72;;;-8.09;100.00
74631;BME280;63138;55.082;38.804;2023-11-21T12:37:57;99465.75;;;-8.05;100.00
74631;BME280;63138;55.082;38.804;2023-11-21T12:40:23;99465.13;;;-8.11;100.00
74631;BME280;63138;55.082;38.804;2023-11-21T12:42:58;99450.31;;;-8.13;100.00
74631;BME280;63138;55.082;38.804;2023-11-21T12:45:26;99456.44;;;-8.13;100.00
74631;BME280;63138;55.082;38.804;2023-11-21T12:47:55;99448.66;;;-8.16;100.00
74631;BME280;63138;55.082;38.804;2023-11-21T12:50:27;99460.91;;;-8.15;100.00
74631;BME280;63138;55.082;38.804;2023-11-21T12:53:03;99458.41;;;-8.18;100.00
74631;BME280;63138;55.082;38.804;2023-11-21T12:55:32;99460.13;;;-8.17;100.00
74631;BME280;63138;55.082;38.804;2023-11-21T12:58:01;99460.13;;;-8.17;100.00